sensor_id;sensor_type;location;lat;lon;timestamp;pressure;altitude;pressure_sealevel;temperature;humidity
61805;BME280;47725;47.912;7.356;2023-07-29T00:03:07;98825.16;;;21.79;63.41
61805;BME280;47725;47.912;7.356;2023-07-29T00:07:07;98823.25;;;21.74;63.36
61805;BME280;47725;47.912;7.356;2023-07-29T00:11:07;98821.17;;;21.70;63.33
61805;BME280;47725;47.912;7.356;2023-07-29T00:15:08;98818.89;;;21.66;63.38
61805;BME280;47725;47.912;7.356;2023-07-29T00:19:07;98815.33;;;21.61;63.44
61805;BME280;47725;47.912;7.356;2023-07-29T00:23:07;98810.96;;;21.58;63.63
61805;BME280;47725;47.912;7.356;2023-07-29T00:27:07;98806.83;;;21.55;63.74
61805;BME280;47725;47.912;7.356;2023-07-29T00:31:07;98802.37;;;21.56;63.49
61805;BME280;47725;47.912;7.356;2023-07-29T00:35:08;98797.16;;;21.60;63.18
61805;BME280;47725;47.912;7.356;2023-07-29T00:39:07;98792.22;;;21.65;63.24
61805;BME280;47725;47.912;7.356;2023-07-29T00:43:07;98788.68;;;21.70;63.24
61805;BME280;47725;47.912;7.356;2023-07-29T00:47:07;98785.02;;;21.75;63.37
61805;BME280;47725;47.912;7.356;2023-07-29T00:51:07;98781.52;;;21.81;63.33
61805;BME280;47725;47.912;7.356;2023-07-29T00:55:08;98779.14;;;21.87;63.03
61805;BME280;47725;47.912;7.356;2023-07-29T00:59:07;98775.96;;;21.92;63.30
61805;BME280;47725;47.912;7.356;2023-07-29T01:03:07;98773.66;;;21.97;63.07
61805;BME280;47725;47.912;7.356;2023-07-29T01:15:09;98765.67;;;22.12;63.02
61805;BME280;47725;47.912;7.356;2023-07-29T01:19:07;98762.40;;;22.16;62.96
61805;BME280;47725;47.912;7.356;2023-07-29T01:23:07;98761.42;;;22.19;62.89
61805;BME280;47725;47.912;7.356;2023-07-29T01:27:07;98761.45;;;22.22;63.04
61805;BME280;47725;47.912;7.356;2023-07-29T01:31:13;98761.58;;;22.23;63.09
61805;BME280;47725;47.912;7.356;2023-07-29T01:35:19;98762.30;;;22.24;63.12
61805;BME280;47725;47.912;7.356;2023-07-29T01:39:07;98761.86;;;22.27;63.00
61805;BME280;47725;47.912;7.356;2023-07-29T01:43:07;98762.16;;;22.28;63.09
61805;BME280;47725;47.912;7.356;2023-07-29T01:47:07;98762.87;;;22.29;63.11
61805;BME280;47725;47.912;7.356;2023-07-29T01:51:07;98763.45;;;22.31;63.00
61805;BME280;47725;47.912;7.356;2023-07-29T01:55:08;98763.76;;;22.33;63.01
61805;BME280;47725;47.912;7.356;2023-07-29T01:59:07;98763.73;;;22.35;62.98
61805;BME280;47725;47.912;7.356;2023-07-29T02:03:07;98763.45;;;22.36;63.03
61805;BME280;47725;47.912;7.356;2023-07-29T02:07:07;98762.30;;;22.36;63.21
61805;BME280;47725;47.912;7.356;2023-07-29T02:11:07;98759.89;;;22.35;63.25
61805;BME280;47725;47.912;7.356;2023-07-29T02:15:07;98757.33;;;22.36;63.06
61805;BME280;47725;47.912;7.356;2023-07-29T02:19:07;98755.35;;;22.36;63.02
61805;BME280;47725;47.912;7.356;2023-07-29T02:23:07;98755.17;;;22.35;63.14
61805;BME280;47725;47.912;7.356;2023-07-29T02:27:07;98753.88;;;22.34;63.21
61805;BME280;47725;47.912;7.356;2023-07-29T02:31:20;98753.42;;;22.33;63.13
61805;BME280;47725;47.912;7.356;2023-07-29T02:35:07;98751.75;;;22.32;63.25
61805;BME280;47725;47.912;7.356;2023-07-29T02:39:07;98751.20;;;22.31;63.26
61805;BME280;47725;47.912;7.356;2023-07-29T02:43:07;98751.29;;;22.30;63.34
61805;BME280;47725;47.912;7.356;2023-07-29T02:47:07;98751.62;;;22.29;63.24
61805;BME280;47725;47.912;7.356;2023-07-29T02:51:07;98752.11;;;22.29;63.35
61805;BME280;47725;47.912;7.356;2023-07-29T02:55:07;98751.08;;;22.28;63.28
61805;BME280;47725;47.912;7.356;2023-07-29T02:59:07;98750.29;;;22.29;63.27
61805;BME280;47725;47.912;7.356;2023-07-29T03:03:07;98749.01;;;22.28;63.57
61805;BME280;47725;47.912;7.356;2023-07-29T03:07:07;98747.47;;;22.27;63.62
61805;BME280;47725;47.912;7.356;2023-07-29T03:11:08;98744.75;;;22.24;63.98
61805;BME280;47725;47.912;7.356;2023-07-29T03:15:07;98745.31;;;22.22;64.11
61805;BME280;47725;47.912;7.356;2023-07-29T03:19:07;98745.62;;;22.19;64.24
61805;BME280;47725;47.912;7.356;2023-07-29T03:23:07;98745.19;;;22.16;64.24
61805;BME280;47725;47.912;7.356;2023-07-29T03:27:07;98741.41;;;22.15;64.16
61805;BME280;47725;47.912;7.356;2023-07-29T03:31:07;98741.52;;;22.13;64.42
61805;BME280;47725;47.912;7.356;2023-07-29T03:35:07;98741.46;;;22.11;64.45
61805;BME280;47725;47.912;7.356;2023-07-29T03:39:07;98742.49;;;22.10;64.21
61805;BME280;47725;47.912;7.356;2023-07-29T03:43:07;98742.78;;;22.11;64.00
61805;BME280;47725;47.912;7.356;2023-07-29T03:47:07;98742.92;;;22.12;63.83
61805;BME280;47725;47.912;7.356;2023-07-29T03:51:07;98740.99;;;22.14;63.75
61805;BME280;47725;47.912;7.356;2023-07-29T03:55:08;98738.61;;;22.15;63.78
61805;BME280;47725;47.912;7.356;2023-07-29T03:59:07;98735.21;;;22.14;63.90
61805;BME280;47725;47.912;7.356;2023-07-29T04:03:08;98733.08;;;22.12;64.00
61805;BME280;47725;47.912;7.356;2023-07-29T04:07:07;98730.33;;;22.10;63.99
61805;BME280;47725;47.912;7.356;2023-07-29T04:11:07;98728.05;;;22.08;64.06
61805;BME280;47725;47.912;7.356;2023-07-29T04:15:07;98727.15;;;22.06;64.15
61805;BME280;47725;47.912;7.356;2023-07-29T04:19:07;98727.44;;;22.05;64.04
61805;BME280;47725;47.912;7.356;2023-07-29T04:23:07;98729.42;;;22.05;64.07
61805;BME280;47725;47.912;7.356;2023-07-29T04:27:07;98729.79;;;22.04;64.06
61805;BME280;47725;47.912;7.356;2023-07-29T04:31:07;98732.76;;;22.03;64.04
61805;BME280;47725;47.912;7.356;2023-07-29T04:35:08;98735.36;;;22.02;64.14
61805;BME280;47725;47.912;7.356;2023-07-29T04:39:07;98738.50;;;22.02;64.08
61805;BME280;47725;47.912;7.356;2023-07-29T04:43:07;98741.14;;;22.02;64.04
61805;BME280;47725;47.912;7.356;2023-07-29T04:47:07;98747.49;;;22.03;63.87
61805;BME280;47725;47.912;7.356;2023-07-29T04:51:07;98752.24;;;22.04;63.98
61805;BME280;47725;47.912;7.356;2023-07-29T04:55:07;98755.64;;;22.04;64.26
61805;BME280;47725;47.912;7.356;2023-07-29T04:59:07;98759.98;;;22.04;64.35
61805;BME280;47725;47.912;7.356;2023-07-29T05:03:07;98763.50;;;22.05;64.07
61805;BME280;47725;47.912;7.356;2023-07-29T05:07:07;98765.55;;;22.07;64.05
61805;BME280;47725;47.912;7.356;2023-07-29T05:11:07;98767.46;;;22.09;63.94
61805;BME280;47725;47.912;7.356;2023-07-29T05:15:07;98770.00;;;22.10;63.97
61805;BME280;47725;47.912;7.356;2023-07-29T05:19:07;98774.28;;;22.12;63.93
61805;BME280;47725;47.912;7.356;2023-07-29T05:23:07;98776.89;;;22.13;64.03
61805;BME280;47725;47.912;7.356;2023-07-29T05:27:07;98780.10;;;22.15;63.93
61805;BME280;47725;47.912;7.356;2023-07-29T05:31:07;98779.57;;;22.17;63.87
61805;BME280;47725;47.912;7.356;2023-07-29T05:35:07;98777.89;;;22.19;63.78
61805;BME280;47725;47.912;7.356;2023-07-29T05:39:07;98777.08;;;22.21;63.83
61805;BME280;47725;47.912;7.356;2023-07-29T05:43:07;98776.93;;;22.24;63.71
61805;BME280;47725;47.912;7.356;2023-07-29T05:47:07;98779.12;;;22.28;63.72
61805;BME280;47725;47.912;7.356;2023-07-29T05:51:07;98780.98;;;22.33;63.57
61805;BME280;47725;47.912;7.356;2023-07-29T05:55:07;98784.30;;;22.36;63.84
61805;BME280;47725;47.912;7.356;2023-07-29T05:59:07;98788.71;;;22.38;63.75
61805;BME280;47725;47.912;7.356;2023-07-29T06:03:07;98793.00;;;22.40;63.81
61805;BME280;47725;47.912;7.356;2023-07-29T06:07:07;98798.30;;;22.43;63.79
61805;BME280;47725;47.912;7.356;2023-07-29T06:11:07;98803.74;;;22.45;63.76
61805;BME280;47725;47.912;7.356;2023-07-29T06:15:07;98809.34;;;22.46;63.94
61805;BME280;47725;47.912;7.356;2023-07-29T06:19:07;98812.06;;;22.46;64.13
61805;BME280;47725;47.912;7.356;2023-07-29T06:23:07;98813.01;;;22.45;64.51
61805;BME280;47725;47.912;7.356;2023-07-29T06:27:07;98808.70;;;22.44;64.49
61805;BME280;47725;47.912;7.356;2023-07-29T06:31:07;98805.33;;;22.43;65.12
61805;BME280;47725;47.912;7.356;2023-07-29T06:35:07;98800.86;;;22.41;65.31
61805;BME280;47725;47.912;7.356;2023-07-29T06:39:07;98796.97;;;22.40;65.29
61805;BME280;47725;47.912;7.356;2023-07-29T06:43:07;98797.00;;;22.46;65.14
61805;BME280;47725;47.912;7.356;2023-07-29T06:47:07;98795.50;;;22.55;64.96
61805;BME280;47725;47.912;7.356;2023-07-29T06:51:07;98792.74;;;22.69;65.14
61805;BME280;47725;47.912;7.356;2023-07-29T06:55:07;98790.64;;;22.86;64.79
61805;BME280;47725;47.912;7.356;2023-07-29T06:59:07;98787.02;;;23.05;64.15
61805;BME280;47725;47.912;7.356;2023-07-29T07:03:07;98783.36;;;23.22;63.75
61805;BME280;47725;47.912;7.356;2023-07-29T07:07:07;98782.10;;;23.38;63.73
61805;BME280;47725;47.912;7.356;2023-07-29T07:11:07;98778.45;;;23.51;63.43
61805;BME280;47725;47.912;7.356;2023-07-29T07:15:07;98775.42;;;23.63;63.68
61805;BME280;47725;47.912;7.356;2023-07-29T07:19:07;98771.50;;;23.74;63.08
61805;BME280;47725;47.912;7.356;2023-07-29T07:23:07;98770.26;;;23.87;62.75
61805;BME280;47725;47.912;7.356;2023-07-29T07:27:07;98769.12;;;24.00;62.42
61805;BME280;47725;47.912;7.356;2023-07-29T07:31:07;98770.83;;;24.12;62.28
61805;BME280;47725;47.912;7.356;2023-07-29T07:35:07;98771.83;;;24.23;61.66
61805;BME280;47725;47.912;7.356;2023-07-29T07:39:07;98773.44;;;24.31;61.37
61805;BME280;47725;47.912;7.356;2023-07-29T07:43:07;98771.12;;;24.34;61.94
61805;BME280;47725;47.912;7.356;2023-07-29T07:47:07;98772.99;;;24.39;61.63
61805;BME280;47725;47.912;7.356;2023-07-29T07:51:10;98777.00;;;24.46;61.45
61805;BME280;47725;47.912;7.356;2023-07-29T07:55:07;98778.49;;;24.57;61.31
61805;BME280;47725;47.912;7.356;2023-07-29T07:59:07;98776.37;;;24.70;60.91
61805;BME280;47725;47.912;7.356;2023-07-29T08:03:07;98775.59;;;24.85;59.97
61805;BME280;47725;47.912;7.356;2023-07-29T08:07:07;98774.06;;;24.98;59.74
61805;BME280;47725;47.912;7.356;2023-07-29T08:11:07;98773.78;;;25.10;58.97
61805;BME280;47725;47.912;7.356;2023-07-29T08:15:07;98773.55;;;25.25;58.23
61805;BME280;47725;47.912;7.356;2023-07-29T08:19:07;98773.63;;;25.41;57.52
61805;BME280;47725;47.912;7.356;2023-07-29T08:23:07;98772.30;;;25.58;56.07
61805;BME280;47725;47.912;7.356;2023-07-29T08:27:07;98772.27;;;25.77;55.53
61805;BME280;47725;47.912;7.356;2023-07-29T08:31:07;98772.73;;;25.95;54.77
61805;BME280;47725;47.912;7.356;2023-07-29T08:35:07;98772.43;;;26.11;53.84
61805;BME280;47725;47.912;7.356;2023-07-29T08:39:07;98771.66;;;26.24;52.85
61805;BME280;47725;47.912;7.356;2023-07-29T08:43:07;98773.17;;;26.38;52.69
61805;BME280;47725;47.912;7.356;2023-07-29T08:47:07;98773.89;;;26.50;51.76
61805;BME280;47725;47.912;7.356;2023-07-29T08:51:10;98774.38;;;26.59;53.06
61805;BME280;47725;47.912;7.356;2023-07-29T08:55:07;98776.62;;;26.71;51.96
61805;BME280;47725;47.912;7.356;2023-07-29T08:59:07;98779.28;;;26.81;50.93
61805;BME280;47725;47.912;7.356;2023-07-29T09:03:07;98779.72;;;26.94;51.30
61805;BME280;47725;47.912;7.356;2023-07-29T09:07:07;98781.24;;;27.10;50.52
61805;BME280;47725;47.912;7.356;2023-07-29T09:11:07;98782.76;;;27.29;49.34
61805;BME280;47725;47.912;7.356;2023-07-29T09:15:07;98784.30;;;27.46;48.31
61805;BME280;47725;47.912;7.356;2023-07-29T09:19:07;98785.51;;;27.55;47.80
61805;BME280;47725;47.912;7.356;2023-07-29T09:23:07;98785.39;;;27.58;49.05
61805;BME280;47725;47.912;7.356;2023-07-29T09:27:07;98784.55;;;27.58;49.14
61805;BME280;47725;47.912;7.356;2023-07-29T09:31:07;98784.76;;;27.55;48.52
61805;BME280;47725;47.912;7.356;2023-07-29T09:35:10;98785.13;;;27.52;48.83
61805;BME280;47725;47.912;7.356;2023-07-29T09:39:10;98785.78;;;27.50;48.66
61805;BME280;47725;47.912;7.356;2023-07-29T09:43:08;98785.18;;;27.48;49.22
61805;BME280;47725;47.912;7.356;2023-07-29T09:47:07;98784.75;;;27.49;48.47
61805;BME280;47725;47.912;7.356;2023-07-29T09:51:10;98785.91;;;27.54;48.09
61805;BME280;47725;47.912;7.356;2023-07-29T09:55:07;98787.03;;;27.57;48.04
61805;BME280;47725;47.912;7.356;2023-07-29T09:59:07;98787.33;;;27.59;47.67
61805;BME280;47725;47.912;7.356;2023-07-29T10:03:07;98788.07;;;27.60;48.39
61805;BME280;47725;47.912;7.356;2023-07-29T10:07:07;98788.53;;;27.68;48.51
61805;BME280;47725;47.912;7.356;2023-07-29T10:11:07;98789.22;;;27.82;47.87
61805;BME280;47725;47.912;7.356;2023-07-29T10:15:07;98787.62;;;27.99;46.24
61805;BME280;47725;47.912;7.356;2023-07-29T10:19:07;98787.22;;;28.16;46.04
61805;BME280;47725;47.912;7.356;2023-07-29T10:23:07;98786.52;;;28.29;45.55
61805;BME280;47725;47.912;7.356;2023-07-29T10:27:07;98787.59;;;28.37;45.29
61805;BME280;47725;47.912;7.356;2023-07-29T10:31:07;98789.65;;;28.42;45.98
61805;BME280;47725;47.912;7.356;2023-07-29T10:35:07;98790.46;;;28.45;45.77
61805;BME280;47725;47.912;7.356;2023-07-29T10:39:07;98790.71;;;28.48;45.64
61805;BME280;47725;47.912;7.356;2023-07-29T10:43:10;98792.50;;;28.51;44.86
61805;BME280;47725;47.912;7.356;2023-07-29T10:47:25;98792.72;;;28.55;43.16
61805;BME280;47725;47.912;7.356;2023-07-29T10:51:26;98792.54;;;28.60;43.39
61805;BME280;47725;47.912;7.356;2023-07-29T11:03:07;98789.81;;;29.03;41.72
61805;BME280;47725;47.912;7.356;2023-07-29T11:11:07;98786.95;;;29.32;41.70
61805;BME280;47725;47.912;7.356;2023-07-29T11:19:07;98782.98;;;29.54;41.04
61805;BME280;47725;47.912;7.356;2023-07-29T11:23:07;98782.30;;;29.64;40.33
61805;BME280;47725;47.912;7.356;2023-07-29T11:27:11;98782.17;;;29.73;40.70
61805;BME280;47725;47.912;7.356;2023-07-29T11:31:07;98782.83;;;29.86;39.90
61805;BME280;47725;47.912;7.356;2023-07-29T11:35:08;98783.31;;;30.00;40.44
61805;BME280;47725;47.912;7.356;2023-07-29T11:39:09;98782.25;;;30.07;39.15
61805;BME280;47725;47.912;7.356;2023-07-29T11:43:07;98782.23;;;30.08;39.13
61805;BME280;47725;47.912;7.356;2023-07-29T11:47:07;98780.39;;;30.08;40.01
61805;BME280;47725;47.912;7.356;2023-07-29T11:51:07;98775.05;;;30.10;39.89
61805;BME280;47725;47.912;7.356;2023-07-29T11:55:07;98770.53;;;30.12;39.59
61805;BME280;47725;47.912;7.356;2023-07-29T11:59:07;98767.67;;;30.13;38.63
61805;BME280;47725;47.912;7.356;2023-07-29T12:03:07;98766.77;;;30.11;38.99
61805;BME280;47725;47.912;7.356;2023-07-29T12:07:07;98765.81;;;30.10;39.72
61805;BME280;47725;47.912;7.356;2023-07-29T12:11:07;98766.32;;;30.11;39.76
61805;BME280;47725;47.912;7.356;2023-07-29T12:15:07;98766.17;;;30.12;39.54
61805;BME280;47725;47.912;7.356;2023-07-29T12:19:07;98767.27;;;30.10;39.39
61805;BME280;47725;47.912;7.356;2023-07-29T12:23:07;98769.26;;;30.04;39.58
61805;BME280;47725;47.912;7.356;2023-07-29T12:27:12;98769.07;;;29.98;40.20
61805;BME280;47725;47.912;7.356;2023-07-29T12:31:07;98769.80;;;29.92;40.51
61805;BME280;47725;47.912;7.356;2023-07-29T12:35:09;98770.19;;;29.84;40.73
61805;BME280;47725;47.912;7.356;2023-07-29T12:39:15;98769.21;;;29.78;40.54
61805;BME280;47725;47.912;7.356;2023-07-29T12:43:07;98768.92;;;29.72;41.25
61805;BME280;47725;47.912;7.356;2023-07-29T12:47:07;98771.41;;;29.68;40.83
61805;BME280;47725;47.912;7.356;2023-07-29T12:51:07;98775.41;;;29.61;41.22
61805;BME280;47725;47.912;7.356;2023-07-29T12:55:07;98774.10;;;29.54;41.30
61805;BME280;47725;47.912;7.356;2023-07-29T12:59:07;98774.59;;;29.48;41.54
61805;BME280;47725;47.912;7.356;2023-07-29T13:03:07;98777.01;;;29.47;41.38
61805;BME280;47725;47.912;7.356;2023-07-29T13:07:07;98775.68;;;29.49;41.19
61805;BME280;47725;47.912;7.356;2023-07-29T13:11:07;98775.27;;;29.52;40.51
61805;BME280;47725;47.912;7.356;2023-07-29T13:15:07;98776.95;;;29.54;40.13
61805;BME280;47725;47.912;7.356;2023-07-29T13:19:07;98779.46;;;29.52;40.28
61805;BME280;47725;47.912;7.356;2023-07-29T13:23:07;98781.81;;;29.50;40.92
61805;BME280;47725;47.912;7.356;2023-07-29T13:27:07;98783.95;;;29.48;40.06
61805;BME280;47725;47.912;7.356;2023-07-29T13:31:07;98785.53;;;29.44;40.56
61805;BME280;47725;47.912;7.356;2023-07-29T13:35:07;98786.19;;;29.40;40.64
61805;BME280;47725;47.912;7.356;2023-07-29T13:39:07;98787.33;;;29.38;39.88
61805;BME280;47725;47.912;7.356;2023-07-29T13:43:07;98786.74;;;29.37;39.90
61805;BME280;47725;47.912;7.356;2023-07-29T13:47:07;98787.73;;;29.35;39.67
61805;BME280;47725;47.912;7.356;2023-07-29T13:51:07;98788.14;;;29.31;40.20
61805;BME280;47725;47.912;7.356;2023-07-29T13:55:07;98788.51;;;29.28;40.94
61805;BME280;47725;47.912;7.356;2023-07-29T13:59:06;98788.90;;;29.22;41.51
61805;BME280;47725;47.912;7.356;2023-07-29T14:03:06;98788.98;;;29.15;42.19
61805;BME280;47725;47.912;7.356;2023-07-29T14:07:06;98790.66;;;29.04;42.69
61805;BME280;47725;47.912;7.356;2023-07-29T14:11:07;98794.98;;;28.88;44.21
61805;BME280;47725;47.912;7.356;2023-07-29T14:15:07;98799.49;;;28.69;45.95
61805;BME280;47725;47.912;7.356;2023-07-29T14:19:07;98803.70;;;28.50;46.10
61805;BME280;47725;47.912;7.356;2023-07-29T14:23:07;98807.47;;;28.35;46.22
61805;BME280;47725;47.912;7.356;2023-07-29T14:27:06;98811.13;;;28.25;46.17
61805;BME280;47725;47.912;7.356;2023-07-29T14:31:06;98814.98;;;28.17;45.13
61805;BME280;47725;47.912;7.356;2023-07-29T14:35:07;98820.34;;;28.08;45.06
61805;BME280;47725;47.912;7.356;2023-07-29T14:39:06;98826.42;;;27.98;46.66
61805;BME280;47725;47.912;7.356;2023-07-29T14:43:06;98832.23;;;27.83;48.30
61805;BME280;47725;47.912;7.356;2023-07-29T14:47:07;98835.83;;;27.67;48.94
61805;BME280;47725;47.912;7.356;2023-07-29T14:51:06;98838.12;;;27.52;49.63
61805;BME280;47725;47.912;7.356;2023-07-29T14:55:07;98836.25;;;27.38;49.54
61805;BME280;47725;47.912;7.356;2023-07-29T14:59:06;98833.47;;;27.27;50.00
61805;BME280;47725;47.912;7.356;2023-07-29T15:03:06;98830.81;;;27.18;49.82
61805;BME280;47725;47.912;7.356;2023-07-29T15:07:06;98827.48;;;27.13;49.99
61805;BME280;47725;47.912;7.356;2023-07-29T15:11:06;98824.77;;;27.10;49.66
61805;BME280;47725;47.912;7.356;2023-07-29T15:15:07;98821.80;;;27.07;49.50
61805;BME280;47725;47.912;7.356;2023-07-29T15:19:06;98816.99;;;27.02;49.82
61805;BME280;47725;47.912;7.356;2023-07-29T15:23:06;98811.77;;;26.95;49.87
61805;BME280;47725;47.912;7.356;2023-07-29T15:27:06;98805.86;;;26.86;50.41
61805;BME280;47725;47.912;7.356;2023-07-29T15:31:06;98801.95;;;26.77;50.87
61805;BME280;47725;47.912;7.356;2023-07-29T15:35:07;98798.49;;;26.69;51.22
61805;BME280;47725;47.912;7.356;2023-07-29T15:39:07;98797.05;;;26.63;51.32
61805;BME280;47725;47.912;7.356;2023-07-29T15:43:06;98796.83;;;26.60;51.13
61805;BME280;47725;47.912;7.356;2023-07-29T15:47:06;98797.82;;;26.56;51.49
61805;BME280;47725;47.912;7.356;2023-07-29T15:51:06;98800.07;;;26.52;51.73
61805;BME280;47725;47.912;7.356;2023-07-29T15:55:07;98801.93;;;26.49;51.59
61805;BME280;47725;47.912;7.356;2023-07-29T15:59:07;98803.44;;;26.48;51.22
61805;BME280;47725;47.912;7.356;2023-07-29T16:03:06;98803.30;;;26.50;51.07
61805;BME280;47725;47.912;7.356;2023-07-29T16:07:06;98802.60;;;26.52;50.92
61805;BME280;47725;47.912;7.356;2023-07-29T16:11:06;98802.71;;;26.55;50.79
61805;BME280;47725;47.912;7.356;2023-07-29T16:15:10;98801.90;;;26.56;50.74
61805;BME280;47725;47.912;7.356;2023-07-29T16:19:06;98801.73;;;26.56;50.76
61805;BME280;47725;47.912;7.356;2023-07-29T16:23:06;98803.63;;;26.54;50.89
61805;BME280;47725;47.912;7.356;2023-07-29T16:27:06;98804.38;;;26.50;50.92
61805;BME280;47725;47.912;7.356;2023-07-29T16:31:07;98808.29;;;26.46;51.32
61805;BME280;47725;47.912;7.356;2023-07-29T16:35:07;98808.23;;;26.43;51.45
61805;BME280;47725;47.912;7.356;2023-07-29T16:39:06;98807.45;;;26.40;51.95
61805;BME280;47725;47.912;7.356;2023-07-29T16:43:07;98805.95;;;26.36;52.46
61805;BME280;47725;47.912;7.356;2023-07-29T16:47:06;98806.64;;;26.29;53.00
61805;BME280;47725;47.912;7.356;2023-07-29T16:51:06;98807.19;;;26.22;53.21
61805;BME280;47725;47.912;7.356;2023-07-29T16:55:07;98808.93;;;26.17;53.09
61805;BME280;47725;47.912;7.356;2023-07-29T16:59:06;98812.27;;;26.10;53.20
61805;BME280;47725;47.912;7.356;2023-07-29T17:03:06;98816.15;;;26.04;53.05
61805;BME280;47725;47.912;7.356;2023-07-29T17:07:06;98817.33;;;26.01;52.74
61805;BME280;47725;47.912;7.356;2023-07-29T17:11:06;98820.68;;;25.98;52.88
61805;BME280;47725;47.912;7.356;2023-07-29T17:15:07;98820.06;;;25.94;52.68
61805;BME280;47725;47.912;7.356;2023-07-29T17:19:06;98819.08;;;25.90;52.79
61805;BME280;47725;47.912;7.356;2023-07-29T17:23:06;98818.56;;;25.86;52.75
61805;BME280;47725;47.912;7.356;2023-07-29T17:27:06;98818.42;;;25.83;52.69
61805;BME280;47725;47.912;7.356;2023-07-29T17:31:06;98817.72;;;25.81;52.73
61805;BME280;47725;47.912;7.356;2023-07-29T17:35:07;98816.07;;;25.78;53.03
61805;BME280;47725;47.912;7.356;2023-07-29T17:39:06;98815.88;;;25.76;53.17
61805;BME280;47725;47.912;7.356;2023-07-29T17:43:06;98817.67;;;25.74;53.44
61805;BME280;47725;47.912;7.356;2023-07-29T17:47:06;98818.39;;;25.73;53.52
61805;BME280;47725;47.912;7.356;2023-07-29T17:51:06;98818.35;;;25.72;53.78
61805;BME280;47725;47.912;7.356;2023-07-29T17:55:06;98817.46;;;25.69;54.09
61805;BME280;47725;47.912;7.356;2023-07-29T17:59:06;98817.52;;;25.64;54.41
61805;BME280;47725;47.912;7.356;2023-07-29T18:03:06;98817.86;;;25.60;54.32
61805;BME280;47725;47.912;7.356;2023-07-29T18:07:06;98818.68;;;25.56;54.51
61805;BME280;47725;47.912;7.356;2023-07-29T18:11:06;98818.78;;;25.52;55.08
61805;BME280;47725;47.912;7.356;2023-07-29T18:15:06;98817.38;;;25.50;54.99
61805;BME280;47725;47.912;7.356;2023-07-29T18:19:06;98816.17;;;25.48;55.41
61805;BME280;47725;47.912;7.356;2023-07-29T18:23:06;98815.00;;;25.44;55.94
61805;BME280;47725;47.912;7.356;2023-07-29T18:27:06;98812.77;;;25.40;56.75
61805;BME280;47725;47.912;7.356;2023-07-29T18:31:06;98808.59;;;25.33;57.86
61805;BME280;47725;47.912;7.356;2023-07-29T18:35:07;98805.94;;;25.23;58.18
61805;BME280;47725;47.912;7.356;2023-07-29T18:39:06;98805.35;;;25.16;58.20
61805;BME280;47725;47.912;7.356;2023-07-29T18:43:06;98806.36;;;25.10;58.60
61805;BME280;47725;47.912;7.356;2023-07-29T18:47:06;98806.99;;;25.04;58.65
61805;BME280;47725;47.912;7.356;2023-07-29T18:51:06;98807.43;;;24.99;58.90
61805;BME280;47725;47.912;7.356;2023-07-29T18:55:07;98807.60;;;24.96;58.70
61805;BME280;47725;47.912;7.356;2023-07-29T18:59:06;98811.31;;;24.91;60.20
61805;BME280;47725;47.912;7.356;2023-07-29T19:03:06;98814.31;;;24.88;59.23
61805;BME280;47725;47.912;7.356;2023-07-29T19:07:06;98812.36;;;24.87;59.24
61805;BME280;47725;47.912;7.356;2023-07-29T19:11:06;98805.71;;;24.86;59.12
61805;BME280;47725;47.912;7.356;2023-07-29T19:15:07;98797.56;;;24.86;58.86
61805;BME280;47725;47.912;7.356;2023-07-29T19:19:06;98791.25;;;24.86;58.98
61805;BME280;47725;47.912;7.356;2023-07-29T19:23:06;98789.69;;;24.84;59.57
61805;BME280;47725;47.912;7.356;2023-07-29T19:27:06;98791.24;;;24.80;59.81
61805;BME280;47725;47.912;7.356;2023-07-29T19:31:06;98790.57;;;24.76;58.95
61805;BME280;47725;47.912;7.356;2023-07-29T19:35:07;98789.12;;;24.74;58.72
61805;BME280;47725;47.912;7.356;2023-07-29T19:39:06;98793.16;;;24.73;58.75
61805;BME280;47725;47.912;7.356;2023-07-29T19:43:06;98799.97;;;24.69;59.14
61805;BME280;47725;47.912;7.356;2023-07-29T19:47:06;98809.74;;;24.65;59.28
61805;BME280;47725;47.912;7.356;2023-07-29T19:51:06;98817.21;;;24.62;59.21
61805;BME280;47725;47.912;7.356;2023-07-29T19:55:07;98821.95;;;24.59;59.07
61805;BME280;47725;47.912;7.356;2023-07-29T19:59:06;98825.03;;;24.57;59.01
61805;BME280;47725;47.912;7.356;2023-07-29T20:03:06;98826.62;;;24.54;58.97
61805;BME280;47725;47.912;7.356;2023-07-29T20:07:06;98827.86;;;24.51;59.06
61805;BME280;47725;47.912;7.356;2023-07-29T20:11:06;98829.24;;;24.47;58.86
61805;BME280;47725;47.912;7.356;2023-07-29T20:15:07;98832.56;;;24.43;58.87
61805;BME280;47725;47.912;7.356;2023-07-29T20:19:06;98836.95;;;24.40;58.86
61805;BME280;47725;47.912;7.356;2023-07-29T20:23:06;98840.56;;;24.38;58.65
61805;BME280;47725;47.912;7.356;2023-07-29T20:27:06;98844.56;;;24.36;58.48
61805;BME280;47725;47.912;7.356;2023-07-29T20:31:06;98845.92;;;24.34;58.45
61805;BME280;47725;47.912;7.356;2023-07-29T20:35:07;98845.14;;;24.33;58.35
61805;BME280;47725;47.912;7.356;2023-07-29T20:39:06;98846.17;;;24.31;58.33
61805;BME280;47725;47.912;7.356;2023-07-29T20:43:06;98847.28;;;24.29;58.38
61805;BME280;47725;47.912;7.356;2023-07-29T20:47:06;98850.69;;;24.24;58.51
61805;BME280;47725;47.912;7.356;2023-07-29T20:51:06;98857.44;;;24.19;58.58
61805;BME280;47725;47.912;7.356;2023-07-29T20:55:07;98865.66;;;24.15;58.44
61805;BME280;47725;47.912;7.356;2023-07-29T20:59:06;98873.46;;;24.13;58.45
61805;BME280;47725;47.912;7.356;2023-07-29T21:03:06;98880.88;;;24.12;58.24
61805;BME280;47725;47.912;7.356;2023-07-29T21:07:06;98886.84;;;24.08;58.41
61805;BME280;47725;47.912;7.356;2023-07-29T21:11:06;98891.86;;;24.06;58.33
61805;BME280;47725;47.912;7.356;2023-07-29T21:15:07;98894.23;;;24.05;58.17
61805;BME280;47725;47.912;7.356;2023-07-29T21:19:06;98894.59;;;24.06;58.03
61805;BME280;47725;47.912;7.356;2023-07-29T21:23:06;98896.30;;;24.07;57.98
61805;BME280;47725;47.912;7.356;2023-07-29T21:27:06;98896.84;;;24.07;58.18
61805;BME280;47725;47.912;7.356;2023-07-29T21:31:06;98896.97;;;24.06;58.20
61805;BME280;47725;47.912;7.356;2023-07-29T21:35:07;98897.24;;;24.03;58.38